createdAt,value
2022-12-11T00:00:50.191Z,26.07
2022-12-11T00:03:18.440Z,22.70
2022-12-11T00:05:45.904Z,23.03
2022-12-11T00:08:13.806Z,22.73
2022-12-11T00:10:48.442Z,26.30
2022-12-11T00:13:15.764Z,26.07
2022-12-11T00:15:42.553Z,27.03
2022-12-11T00:18:13.551Z,29.40
2022-12-11T00:20:40.651Z,25.13
2022-12-11T00:23:07.463Z,27.20
2022-12-11T00:25:34.347Z,26.57
2022-12-11T00:28:01.303Z,29.23
2022-12-11T00:30:28.323Z,30.20
2022-12-11T00:32:55.324Z,25.53
2022-12-11T00:35:22.387Z,27.20
2022-12-11T00:37:49.303Z,24.67
2022-12-11T00:40:16.463Z,25.73
2022-12-11T00:42:43.865Z,27.33
2022-12-11T00:45:11.794Z,22.00
2022-12-11T00:47:39.168Z,24.70
2022-12-11T00:50:07.088Z,25.50
2022-12-11T00:52:34.931Z,23.13
2022-12-11T00:55:02.199Z,23.13
2022-12-11T00:57:29.306Z,27.13
2022-12-11T00:59:56.290Z,25.37
2022-12-11T01:02:23.188Z,23.27
2022-12-11T01:04:50.197Z,21.93
2022-12-11T01:07:17.192Z,23.87
2022-12-11T01:10:02.531Z,23.40
2022-12-11T01:12:29.527Z,22.17
2022-12-11T01:14:56.329Z,21.43
2022-12-11T01:17:23.189Z,20.10
2022-12-11T01:19:50.116Z,21.03
2022-12-11T01:22:16.842Z,24.00
2022-12-11T01:24:44.265Z,23.40
2022-12-11T01:27:11.101Z,21.73
2022-12-11T01:29:37.958Z,22.40
2022-12-11T01:32:04.926Z,24.10
2022-12-11T01:34:33.391Z,22.23
2022-12-11T01:37:00.216Z,22.93
2022-12-11T01:39:27.159Z,23.13
2022-12-11T01:42:01.377Z,21.90
2022-12-11T01:44:31.078Z,20.77
2022-12-11T01:46:58.563Z,20.90
2022-12-11T01:49:27.564Z,24.10
2022-12-11T01:52:03.255Z,24.83
2022-12-11T01:54:30.582Z,23.00
2022-12-11T01:57:03.359Z,25.40
2022-12-11T01:59:34.221Z,25.53
2022-12-11T02:02:06.772Z,24.40
2022-12-11T02:04:35.674Z,26.10
2022-12-11T02:07:03.663Z,21.20
2022-12-11T02:09:33.651Z,24.13
2022-12-11T02:12:26.637Z,26.03
2022-12-11T02:14:59.929Z,25.10
2022-12-11T02:17:34.776Z,23.53
2022-12-11T02:20:22.285Z,25.40
2022-12-11T02:22:49.876Z,23.43
2022-12-11T02:25:35.847Z,24.10
2022-12-11T02:28:19.390Z,25.60
2022-12-11T02:30:55.345Z,26.33
2022-12-11T02:33:28.841Z,24.40
2022-12-11T02:35:57.254Z,24.43
2022-12-11T02:38:32.864Z,27.67
2022-12-11T02:41:01.316Z,28.50
2022-12-11T02:43:30.906Z,30.23
2022-12-11T02:45:59.304Z,26.17
2022-12-11T02:48:26.594Z,27.27
2022-12-11T02:50:58.195Z,25.87
2022-12-11T02:53:28.193Z,30.80
2022-12-11T02:56:04.072Z,27.90
2022-12-11T02:58:33.945Z,24.67
2022-12-11T03:01:01.090Z,33.30
2022-12-11T03:03:29.451Z,31.20
2022-12-11T03:05:56.444Z,27.47
2022-12-11T03:08:23.424Z,32.30
2022-12-11T03:10:50.331Z,33.80
2022-12-11T03:13:21.868Z,34.10
2022-12-11T03:15:51.489Z,33.43
2022-12-11T03:18:36.750Z,28.97
2022-12-11T03:21:32.750Z,32.43
2022-12-11T03:24:15.756Z,32.57
2022-12-11T03:26:46.578Z,28.40
2022-12-11T03:29:21.249Z,32.10
2022-12-11T03:32:19.954Z,28.30
2022-12-11T03:34:58.149Z,28.23
2022-12-11T03:37:29.085Z,29.10
2022-12-11T03:40:01.052Z,30.77
2022-12-11T03:42:28.658Z,35.13
2022-12-11T03:44:59.217Z,37.73
2022-12-11T03:47:28.944Z,28.83
2022-12-11T03:49:58.527Z,30.00
2022-12-11T03:52:28.574Z,32.17
2022-12-11T03:54:59.626Z,31.80
2022-12-11T03:57:31.678Z,33.17
2022-12-11T03:59:58.828Z,33.03
2022-12-11T04:02:25.774Z,32.27
2022-12-11T04:04:53.380Z,26.73
2022-12-11T04:07:20.197Z,28.33
2022-12-11T04:09:46.955Z,27.77
2022-12-11T04:12:13.729Z,31.80
2022-12-11T04:14:59.117Z,30.07
2022-12-11T04:17:44.328Z,28.27
2022-12-11T04:20:30.343Z,33.73
2022-12-11T04:23:16.428Z,29.80
2022-12-11T04:25:43.339Z,30.33
2022-12-11T04:28:10.286Z,30.40
2022-12-11T04:30:37.205Z,28.73
2022-12-11T04:33:04.430Z,32.60
2022-12-11T04:35:31.495Z,27.90
2022-12-11T04:37:58.770Z,29.97
2022-12-11T04:40:25.641Z,28.67
2022-12-11T04:42:52.419Z,33.20
2022-12-11T04:45:19.325Z,33.40
2022-12-11T04:47:46.064Z,29.37
2022-12-11T04:50:14.793Z,32.23
2022-12-11T04:52:42.794Z,28.33
2022-12-11T04:55:11.229Z,27.07
2022-12-11T04:57:38.805Z,29.60
2022-12-11T05:00:11.292Z,29.20
2022-12-11T05:02:39.363Z,28.50
2022-12-11T05:05:09.920Z,32.60
2022-12-11T05:07:37.941Z,31.03
2022-12-11T05:10:05.775Z,29.63
2022-12-11T05:12:33.365Z,28.17
2022-12-11T05:15:00.240Z,26.50
2022-12-11T05:17:27.059Z,28.90
2022-12-11T05:19:55.144Z,31.37
2022-12-11T05:22:22.075Z,32.63
2022-12-11T05:24:49.118Z,25.80
2022-12-11T05:27:15.935Z,28.80
2022-12-11T05:29:42.979Z,28.43
2022-12-11T05:32:10.285Z,30.13
2022-12-11T05:34:37.210Z,29.93
2022-12-11T05:37:04.088Z,27.37
2022-12-11T05:39:31.171Z,29.90
2022-12-11T05:41:57.974Z,31.43
2022-12-11T05:44:25.820Z,24.40
2022-12-11T05:46:52.850Z,32.33
2022-12-11T05:49:20.106Z,34.30
2022-12-11T05:51:47.442Z,28.97
2022-12-11T05:54:14.771Z,28.40
2022-12-11T05:56:41.745Z,29.47
2022-12-11T05:59:09.177Z,30.70
2022-12-11T06:01:39.462Z,27.37
2022-12-11T06:04:08.602Z,27.00
2022-12-11T06:06:36.997Z,30.10
2022-12-11T06:09:05.512Z,28.23
2022-12-11T06:11:34.456Z,27.10
2022-12-11T06:14:03.452Z,27.27
2022-12-11T06:16:30.789Z,26.83
2022-12-11T06:18:58.587Z,29.33
2022-12-11T06:21:28.311Z,25.33
2022-12-11T06:23:57.318Z,24.87
2022-12-11T06:26:25.010Z,25.70
2022-12-11T06:28:52.893Z,26.97
2022-12-11T06:31:20.257Z,25.20
2022-12-11T06:33:47.499Z,24.67
2022-12-11T06:36:17.339Z,24.87
2022-12-11T06:38:44.769Z,23.40
2022-12-11T06:41:12.255Z,25.70
2022-12-11T06:43:40.805Z,25.57
2022-12-11T06:46:11.442Z,30.17
2022-12-11T06:48:38.636Z,29.73
2022-12-11T06:51:07.706Z,27.07
2022-12-11T06:53:35.028Z,29.47
2022-12-11T06:56:08.329Z,28.73
2022-12-11T06:58:36.725Z,25.27
2022-12-11T07:01:04.864Z,28.33
2022-12-11T07:03:31.842Z,27.13
2022-12-11T07:06:02.627Z,24.57
2022-12-11T07:08:30.028Z,24.27
2022-12-11T07:11:03.544Z,25.93
2022-12-11T07:13:30.363Z,27.03
2022-12-11T07:15:59.186Z,25.20
2022-12-11T07:18:27.180Z,23.83
2022-12-11T07:20:54.695Z,24.30
2022-12-11T07:23:21.527Z,25.63
2022-12-11T07:25:48.923Z,28.50
2022-12-11T07:28:16.933Z,25.07
2022-12-11T07:30:44.096Z,24.47
2022-12-11T07:33:11.014Z,23.60
2022-12-11T07:35:38.000Z,26.03
2022-12-11T07:38:04.830Z,23.47
2022-12-11T07:40:31.810Z,27.63
2022-12-11T07:42:58.592Z,23.83
2022-12-11T07:45:26.508Z,28.57
2022-12-11T07:47:53.409Z,25.10
2022-12-11T07:50:20.178Z,29.63
2022-12-11T07:52:47.234Z,27.87
2022-12-11T07:55:14.146Z,25.67
2022-12-11T07:57:40.933Z,29.70
2022-12-11T08:00:08.723Z,26.27
2022-12-11T08:02:39.635Z,27.67
2022-12-11T08:05:08.096Z,33.07
2022-12-11T08:07:36.352Z,29.63
2022-12-11T08:10:04.583Z,26.60
2022-12-11T08:12:31.384Z,26.47
2022-12-11T08:14:58.423Z,28.30
2022-12-11T08:17:30.103Z,26.90
2022-12-11T08:19:58.865Z,29.07
2022-12-11T08:22:25.679Z,25.90
2022-12-11T08:24:52.459Z,28.90
2022-12-11T08:27:19.459Z,26.63
2022-12-11T08:29:47.578Z,30.60
2022-12-11T08:32:16.763Z,33.73
2022-12-11T08:34:43.903Z,33.83
2022-12-11T08:37:10.689Z,30.17
2022-12-11T08:39:37.638Z,27.60
2022-12-11T08:42:05.692Z,29.50
2022-12-11T08:44:32.426Z,30.40
2022-12-11T08:46:59.192Z,29.83
2022-12-11T08:49:29.857Z,27.47
2022-12-11T08:51:59.541Z,29.67
2022-12-11T08:54:26.473Z,28.20
2022-12-11T08:56:57.830Z,27.37
2022-12-11T08:59:25.867Z,26.47
2022-12-11T09:01:52.836Z,33.67
2022-12-11T09:04:19.817Z,26.53
2022-12-11T09:06:46.670Z,28.60
2022-12-11T09:09:13.465Z,27.10
2022-12-11T09:11:40.675Z,32.83
2022-12-11T09:14:08.455Z,27.93
2022-12-11T09:16:40.380Z,28.97
2022-12-11T09:19:09.405Z,32.40
2022-12-11T09:21:36.472Z,27.10
2022-12-11T09:24:04.028Z,29.43
2022-12-11T09:26:31.313Z,29.50
2022-12-11T09:28:58.711Z,26.70
2022-12-11T09:31:31.345Z,29.13
2022-12-11T09:34:01.593Z,30.30
2022-12-11T09:36:28.818Z,33.17
2022-12-11T09:38:55.958Z,30.37
2022-12-11T09:41:22.927Z,27.80
2022-12-11T09:44:16.778Z,27.70
2022-12-11T09:46:45.517Z,26.83
2022-12-11T09:49:32.679Z,29.03
2022-12-11T09:52:26.519Z,28.90
2022-12-11T09:54:59.601Z,24.30
2022-12-11T09:57:43.839Z,26.20
2022-12-11T10:00:14.068Z,25.73
2022-12-11T10:02:59.076Z,24.53
2022-12-11T10:05:32.147Z,26.57
2022-12-11T10:08:16.722Z,26.77
2022-12-11T10:10:59.992Z,25.50
2022-12-11T10:13:35.895Z,24.17
2022-12-11T10:16:20.334Z,26.77
2022-12-11T10:18:49.094Z,21.53
2022-12-11T10:21:18.624Z,22.67
2022-12-11T10:23:58.697Z,23.53
2022-12-11T10:26:27.470Z,22.80
2022-12-11T10:28:54.834Z,28.13
2022-12-11T10:31:40.992Z,24.10
2022-12-11T10:34:39.559Z,24.50
2022-12-11T10:37:06.838Z,22.97
2022-12-11T10:39:33.704Z,21.77
2022-12-11T10:42:14.767Z,23.57
2022-12-11T10:44:41.591Z,20.93
2022-12-11T10:47:18.293Z,23.80
2022-12-11T10:49:56.606Z,22.67
2022-12-11T10:52:31.883Z,18.50
2022-12-11T10:55:02.887Z,21.67
2022-12-11T10:57:35.681Z,21.77
2022-12-11T11:00:07.461Z,20.73
2022-12-11T11:02:41.910Z,20.10
2022-12-11T11:05:27.133Z,22.37
2022-12-11T11:08:25.456Z,22.17
2022-12-11T11:11:00.182Z,22.40
2022-12-11T11:13:31.315Z,24.57
2022-12-11T11:16:03.387Z,24.40
2022-12-11T11:18:31.387Z,20.77
2022-12-11T11:20:59.207Z,19.20
2022-12-11T11:23:27.238Z,20.53
2022-12-11T11:26:00.745Z,21.63
2022-12-11T11:28:35.322Z,21.93
2022-12-11T11:31:02.663Z,24.33
2022-12-11T11:33:31.289Z,25.80
2022-12-11T11:36:04.045Z,25.00
2022-12-11T11:38:30.814Z,24.00
2022-12-11T11:41:15.320Z,21.30
2022-12-11T11:43:48.955Z,21.77
2022-12-11T11:46:32.478Z,23.27
2022-12-11T11:49:28.166Z,24.87
2022-12-11T11:52:02.184Z,24.53
2022-12-11T11:54:36.824Z,23.23
2022-12-11T11:57:35.664Z,22.57
2022-12-11T12:00:20.805Z,22.23
2022-12-11T12:03:01.677Z,21.57
2022-12-11T12:05:59.366Z,25.87
2022-12-11T12:08:44.650Z,23.93
2022-12-11T12:11:14.392Z,21.77
2022-12-11T12:14:50.514Z,23.63
2022-12-11T12:17:23.189Z,23.43
2022-12-11T12:19:59.119Z,20.77
2022-12-11T12:22:34.302Z,22.53
2022-12-11T12:25:16.369Z,21.43
2022-12-11T12:27:58.158Z,20.50
2022-12-11T12:30:27.443Z,22.83
2022-12-11T12:33:35.619Z,22.93
2022-12-11T12:36:07.224Z,21.33
2022-12-11T12:38:45.761Z,20.57
2022-12-11T12:41:22.641Z,24.33
2022-12-11T12:44:15.343Z,20.83
2022-12-11T12:47:08.533Z,20.60
2022-12-11T12:49:50.177Z,21.03
2022-12-11T12:52:31.385Z,20.30
2022-12-11T12:55:16.057Z,18.70
2022-12-11T12:57:47.675Z,21.10
2022-12-11T13:00:31.100Z,22.67
2022-12-11T13:03:00.759Z,17.53
2022-12-11T13:05:35.678Z,20.10
2022-12-11T13:08:04.948Z,19.67
2022-12-11T13:10:37.493Z,21.17
2022-12-11T13:13:06.900Z,19.13
2022-12-11T13:15:45.449Z,17.87
2022-12-11T13:18:51.043Z,18.67
2022-12-11T13:21:32.964Z,20.37
2022-12-11T13:24:20.312Z,18.27
2022-12-11T13:26:49.080Z,21.30
2022-12-11T13:29:29.456Z,18.37
2022-12-11T13:32:11.478Z,17.30
2022-12-11T13:34:45.051Z,18.63
2022-12-11T13:37:32.031Z,19.63
2022-12-11T13:40:00.151Z,19.70
2022-12-11T13:42:34.557Z,18.77
2022-12-11T13:45:03.013Z,19.10
2022-12-11T13:47:32.125Z,20.23
2022-12-11T13:50:37.693Z,18.43
2022-12-11T13:53:05.535Z,17.80
2022-12-11T13:55:35.064Z,18.27
2022-12-11T13:58:02.481Z,19.00
2022-12-11T14:00:32.938Z,17.57
2022-12-11T14:03:05.010Z,20.90
2022-12-11T14:05:34.492Z,21.23
2022-12-11T14:08:09.148Z,20.20
2022-12-11T14:10:37.410Z,19.70
2022-12-11T14:13:07.138Z,18.13
2022-12-11T14:15:36.750Z,18.00
2022-12-11T14:18:05.781Z,19.83
2022-12-11T14:20:34.334Z,17.00
2022-12-11T14:23:09.624Z,17.03
2022-12-11T14:25:36.978Z,15.90
2022-12-11T14:28:04.254Z,15.93
2022-12-11T14:30:33.684Z,15.67
2022-12-11T14:33:05.510Z,16.57
2022-12-11T14:35:39.079Z,17.20
2022-12-11T14:38:17.133Z,17.93
2022-12-11T14:40:47.238Z,16.70
2022-12-11T14:43:31.637Z,15.73
2022-12-11T14:46:04.091Z,16.90
2022-12-11T14:48:43.152Z,16.50
2022-12-11T14:51:15.344Z,17.20
2022-12-11T14:53:46.247Z,17.57
2022-12-11T14:56:27.620Z,15.47
2022-12-11T14:58:58.602Z,17.23
2022-12-11T15:01:32.852Z,16.80
2022-12-11T15:04:02.559Z,17.87
2022-12-11T15:06:33.444Z,15.93
2022-12-11T15:09:25.684Z,19.13
2022-12-11T15:11:56.012Z,16.50
2022-12-11T15:14:24.459Z,17.57
2022-12-11T15:16:54.672Z,17.60
2022-12-11T15:19:30.774Z,17.40
2022-12-11T15:22:12.749Z,15.90
2022-12-11T15:24:45.173Z,15.63
2022-12-11T15:27:37.406Z,17.77
2022-12-11T15:30:28.684Z,18.20
2022-12-11T15:33:12.023Z,17.50
2022-12-11T15:35:51.242Z,16.13
2022-12-11T15:38:28.414Z,17.17
2022-12-11T15:40:56.229Z,16.23
2022-12-11T15:43:23.502Z,17.10
2022-12-11T15:45:50.439Z,18.43
2022-12-11T15:48:17.484Z,23.20
2022-12-11T15:50:44.378Z,19.57
2022-12-11T15:53:11.178Z,21.00
2022-12-11T15:55:39.306Z,20.87
2022-12-11T15:58:13.787Z,18.10
2022-12-11T16:00:40.942Z,20.70
2022-12-11T16:03:11.292Z,19.93
2022-12-11T16:05:38.163Z,19.77
2022-12-11T16:08:05.623Z,18.63
2022-12-11T16:10:32.462Z,19.60
2022-12-11T16:12:59.915Z,23.23
2022-12-11T16:15:27.335Z,20.60
2022-12-11T16:18:06.764Z,17.50
2022-12-11T16:20:35.619Z,19.00
2022-12-11T16:23:03.144Z,20.97
2022-12-11T16:25:31.700Z,19.73
2022-12-11T16:28:01.124Z,18.53
2022-12-11T16:30:29.347Z,18.57
2022-12-11T16:32:56.836Z,18.63
2022-12-11T16:35:23.738Z,16.87
2022-12-11T16:37:54.361Z,18.77
2022-12-11T16:40:21.819Z,18.37
2022-12-11T16:42:49.655Z,16.07
2022-12-11T16:45:22.497Z,19.77
2022-12-11T16:47:49.918Z,20.87
2022-12-11T16:50:17.471Z,18.63
2022-12-11T16:52:44.806Z,16.87
2022-12-11T16:55:13.102Z,15.60
2022-12-11T16:57:40.546Z,17.33
2022-12-11T17:00:09.753Z,17.13
2022-12-11T17:02:37.287Z,17.97
2022-12-11T17:05:04.372Z,18.70
2022-12-11T17:07:32.592Z,19.67
2022-12-11T17:10:00.960Z,19.37
2022-12-11T17:12:28.078Z,17.63
2022-12-11T17:14:56.430Z,17.33
2022-12-11T17:17:23.798Z,18.83
2022-12-11T17:19:50.689Z,20.67
2022-12-11T17:22:17.571Z,17.80
2022-12-11T17:24:44.550Z,17.07
2022-12-11T17:27:11.486Z,18.23
2022-12-11T17:29:38.362Z,16.80
2022-12-11T17:32:05.668Z,18.00
2022-12-11T17:34:37.844Z,17.77
2022-12-11T17:37:05.810Z,19.90
2022-12-11T17:39:33.285Z,16.80
2022-12-11T17:42:00.946Z,18.63
2022-12-11T17:44:30.630Z,20.07
2022-12-11T17:47:04.668Z,19.73
2022-12-11T17:49:34.431Z,17.77
2022-12-11T17:52:01.280Z,17.87
2022-12-11T17:54:28.441Z,15.70
2022-12-11T17:56:55.393Z,16.90
2022-12-11T17:59:22.302Z,18.57
2022-12-11T18:01:49.303Z,17.93
2022-12-11T18:04:16.201Z,17.87
2022-12-11T18:06:43.022Z,17.33
2022-12-11T18:09:10.366Z,19.30
2022-12-11T18:11:37.731Z,17.87
2022-12-11T18:14:04.714Z,19.17
2022-12-11T18:16:35.638Z,18.17
2022-12-11T18:19:02.777Z,18.20
2022-12-11T18:21:33.503Z,20.17
2022-12-11T18:24:00.970Z,15.03
2022-12-11T18:26:29.331Z,18.77
2022-12-11T18:28:56.256Z,16.13
2022-12-11T18:31:23.863Z,14.20
2022-12-11T18:33:51.689Z,16.23
2022-12-11T18:36:20.068Z,17.07
2022-12-11T18:38:48.132Z,17.80
2022-12-11T18:41:16.902Z,14.47
2022-12-11T18:43:44.288Z,15.17
2022-12-11T18:46:14.825Z,19.07
2022-12-11T18:48:42.679Z,16.80
2022-12-11T18:51:12.952Z,15.13
2022-12-11T18:53:40.746Z,15.40
2022-12-11T18:56:12.832Z,17.17
2022-12-11T18:58:40.855Z,16.57
2022-12-11T19:01:10.238Z,15.73
2022-12-11T19:03:37.327Z,16.93
2022-12-11T19:06:12.900Z,16.57
2022-12-11T19:08:40.540Z,18.10
2022-12-11T19:11:07.451Z,15.00
2022-12-11T19:13:35.559Z,15.83
2022-12-11T19:16:02.498Z,15.43
2022-12-11T19:18:29.461Z,14.17
2022-12-11T19:21:08.110Z,16.83
2022-12-11T19:23:36.713Z,13.80
2022-12-11T19:26:04.087Z,16.67
2022-12-11T19:28:31.530Z,19.90
2022-12-11T19:30:58.638Z,17.67
2022-12-11T19:33:25.963Z,16.03
2022-12-11T19:36:06.122Z,14.90
2022-12-11T19:38:33.661Z,16.53
2022-12-11T19:41:08.512Z,15.67
2022-12-11T19:43:37.004Z,13.97
2022-12-11T19:46:09.086Z,14.67
2022-12-11T19:48:38.737Z,14.13
2022-12-11T19:51:07.060Z,15.23
2022-12-11T19:53:35.033Z,14.53
2022-12-11T19:56:03.363Z,14.70
2022-12-11T19:58:30.583Z,14.87
2022-12-11T20:00:57.564Z,14.50
2022-12-11T20:03:25.217Z,18.87
2022-12-11T20:05:52.269Z,18.13
2022-12-11T20:08:43.358Z,18.57
2022-12-11T20:11:12.824Z,15.53
2022-12-11T20:13:45.633Z,16.90
2022-12-11T20:16:13.758Z,16.67
2022-12-11T20:18:40.877Z,19.23
2022-12-11T20:21:11.801Z,15.97
2022-12-11T20:23:39.171Z,18.27
2022-12-11T20:26:08.113Z,15.83
2022-12-11T20:28:35.472Z,17.30
2022-12-11T20:31:18.216Z,17.03
2022-12-11T20:33:47.197Z,14.77
2022-12-11T20:36:15.857Z,17.80
2022-12-11T20:38:43.638Z,16.60
2022-12-11T20:41:16.180Z,15.63
2022-12-11T20:43:44.500Z,17.57
2022-12-11T20:46:14.851Z,15.13
2022-12-11T20:48:43.349Z,15.43
2022-12-11T20:51:12.091Z,16.43
2022-12-11T20:53:40.268Z,17.53
2022-12-11T20:56:33.703Z,16.77
2022-12-11T20:59:01.205Z,16.53
2022-12-11T21:01:31.510Z,16.27
2022-12-11T21:03:59.769Z,13.90
2022-12-11T21:06:34.650Z,16.17
2022-12-11T21:09:09.433Z,15.17
2022-12-11T21:11:36.794Z,14.13
2022-12-11T21:14:04.301Z,16.60
2022-12-11T21:16:31.337Z,16.90
2022-12-11T21:18:59.254Z,16.80
2022-12-11T21:21:26.758Z,14.80
2022-12-11T21:23:53.755Z,15.40
2022-12-11T21:26:20.858Z,17.57
2022-12-11T21:28:47.917Z,16.63
2022-12-11T21:31:18.211Z,15.50
2022-12-11T21:33:46.435Z,17.37
2022-12-11T21:36:14.747Z,17.30
2022-12-11T21:38:43.682Z,16.20
2022-12-11T21:41:16.450Z,17.03
2022-12-11T21:44:49.808Z,15.93
2022-12-11T21:46:33.342Z,17.73
2022-12-11T21:49:00.225Z,16.70
2022-12-11T21:51:36.136Z,15.60
2022-12-11T21:54:06.955Z,15.90
2022-12-11T21:56:34.115Z,16.17
2022-12-11T21:59:01.769Z,16.87
2022-12-11T22:01:32.474Z,16.50
2022-12-11T22:03:59.939Z,15.60
2022-12-11T22:06:28.368Z,14.63
2022-12-11T22:08:55.371Z,15.63
2022-12-11T22:11:26.049Z,14.10
2022-12-11T22:13:52.986Z,14.80
2022-12-11T22:16:20.229Z,16.80
2022-12-11T22:18:47.638Z,17.03
2022-12-11T22:21:15.663Z,17.87
2022-12-11T22:23:43.513Z,16.50
2022-12-11T22:26:17.232Z,13.73
2022-12-11T22:28:44.359Z,13.80
2022-12-11T22:31:13.672Z,14.03
2022-12-11T22:33:40.980Z,15.07
2022-12-11T22:36:08.294Z,15.03
2022-12-11T22:38:35.208Z,13.73
2022-12-11T22:41:16.337Z,15.17
2022-12-11T22:43:47.382Z,16.57
2022-12-11T22:46:16.017Z,14.97
2022-12-11T22:48:42.945Z,16.60
2022-12-11T22:51:10.577Z,15.93
2022-12-11T22:53:37.548Z,14.30
2022-12-11T22:56:09.577Z,15.10
2022-12-11T22:58:36.949Z,15.13
2022-12-11T23:01:10.982Z,13.00
2022-12-11T23:03:37.985Z,15.57
2022-12-11T23:06:07.792Z,13.63
2022-12-11T23:08:35.907Z,14.90
2022-12-11T23:11:09.838Z,12.67
2022-12-11T23:13:37.256Z,15.33
2022-12-11T23:16:04.208Z,14.67
2022-12-11T23:18:51.475Z,15.47
2022-12-11T23:21:24.024Z,14.80
2022-12-11T23:23:51.087Z,16.50
2022-12-11T23:26:19.192Z,15.93
2022-12-11T23:28:47.082Z,14.40
2022-12-11T23:31:14.707Z,16.00
2022-12-11T23:33:41.653Z,17.00
2022-12-11T23:36:08.898Z,18.27
2022-12-11T23:38:36.111Z,15.70
2022-12-11T23:41:04.371Z,16.40
2022-12-11T23:43:32.090Z,15.13
2022-12-11T23:45:58.887Z,16.03
2022-12-11T23:48:25.719Z,14.73
2022-12-11T23:50:52.744Z,16.30
2022-12-11T23:53:19.584Z,15.90
2022-12-11T23:55:46.596Z,15.17
2022-12-11T23:58:13.567Z,16.00
